Bridget Caulley — WDF3975 — position and weather

sailwx.info

Track history (hours):
 
Tides and Currents Weather Stations Pressure Air Temp Water Temp Dewpoint Dewpoint Depression Visibility Wind Speed Wind Dir Waves Ship Positions

Bridget Caulley

Owner: Kirby Inland Marine, LP, Houston, TX. More information available from US FCC via Universal Licensing System and Coast Guard Vessel Documentation Center.

Last reported at 2017-Dec-07 15:02 UTC. Time now 2017-Dec-11 15:04 UTC.
Position N 32°05' W 091°05'.

Length 147 m; draft 2.7 m.

Type: . MMSI: 367446370.

Date/timePositionNaut miles runAvg speedWind from/ knotsBaromVisibWave heightAir tempDewpointWater temp
2017-Dec-07 15:02N 32°05' W 091°05'112.5
2017-Dec-07 14:58N 32°06' W 091°06'3 6.7
2017-Dec-07 14:30N 32°07' W 091°02'510.7
2017-Dec-07 14:00N 32°12' W 090°60'611.8
2017-Dec-07 13:30N 32°17' W 090°56'4 7.4
2017-Dec-07 13:00N 32°21' W 090°56'4 7.5
2017-Dec-07 12:30N 32°23' W 090°60'3 7.0
2017-Dec-07 12:00N 32°26' W 091°02'611.2
2017-Dec-07 11:30N 32°30' W 091°07'611.3
2017-Dec-07 11:00N 32°35' W 091°08'  
Track history (hours):
 
Tides and Currents Weather Stations Pressure Air Temp Water Temp Dewpoint Dewpoint Depression Visibility Wind Speed Wind Dir Waves Ship Positions

Bridget Caulley

Owner: Kirby Inland Marine, LP, Houston, TX. More information available from US FCC via Universal Licensing System and Coast Guard Vessel Documentation Center.

Last reported at 2017-Dec-07 15:02 UTC. Time now 2017-Dec-11 15:04 UTC.
Position N 32°05' W 091°05'.

Length 147 m; draft 2.7 m.

Type: . MMSI: 367446370.

Date/timePositionNaut miles runAvg speedWind from/ knotsBaromVisibWave heightAir tempDewpointWater temp
2017-Dec-07 15:02N 32°05' W 091°05'112.5
2017-Dec-07 14:58N 32°06' W 091°06'3 6.7
2017-Dec-07 14:30N 32°07' W 091°02'510.7
2017-Dec-07 14:00N 32°12' W 090°60'611.8
2017-Dec-07 13:30N 32°17' W 090°56'4 7.4
2017-Dec-07 13:00N 32°21' W 090°56'4 7.5
2017-Dec-07 12:30N 32°23' W 090°60'3 7.0
2017-Dec-07 12:00N 32°26' W 091°02'611.2
2017-Dec-07 11:30N 32°30' W 091°07'611.3
2017-Dec-07 11:00N 32°35' W 091°08'  

Dump ship's entire track history